createdAt,value
2018-04-09T00:00:51.391Z,6.33
2018-04-09T00:03:18.420Z,5.90
2018-04-09T00:05:44.672Z,5.87
2018-04-09T00:08:10.938Z,5.77
2018-04-09T00:10:37.206Z,5.47
2018-04-09T00:13:03.490Z,5.90
2018-04-09T00:15:29.758Z,5.37
2018-04-09T00:17:56.002Z,5.57
2018-04-09T00:20:22.339Z,4.90
2018-04-09T00:22:48.592Z,5.07
2018-04-09T00:25:15.275Z,5.23
2018-04-09T00:27:41.520Z,4.93
2018-04-09T00:30:08.280Z,4.70
2018-04-09T00:32:34.555Z,4.60
2018-04-09T00:35:00.827Z,4.60
2018-04-09T00:37:27.084Z,4.97
2018-04-09T00:39:53.353Z,4.90
2018-04-09T00:42:19.651Z,4.60
2018-04-09T00:44:46.004Z,4.53
2018-04-09T00:47:12.275Z,4.53
2018-04-09T00:49:38.549Z,4.57
2018-04-09T00:52:05.543Z,4.83
2018-04-09T00:54:31.814Z,4.83
2018-04-09T00:56:58.059Z,4.87
2018-04-09T00:59:25.230Z,4.47
2018-04-09T01:01:51.955Z,4.60
2018-04-09T01:04:18.223Z,4.80
2018-04-09T01:06:44.525Z,5.33
2018-04-09T01:09:10.814Z,4.87
2018-04-09T01:11:37.088Z,5.00
2018-04-09T01:14:03.351Z,5.17
2018-04-09T01:16:30.446Z,5.53
2018-04-09T01:18:56.706Z,5.20
2018-04-09T01:21:22.974Z,5.80
2018-04-09T01:23:49.234Z,5.50
2018-04-09T01:26:16.246Z,6.00
2018-04-09T01:28:42.516Z,5.53
2018-04-09T01:31:08.790Z,5.60
2018-04-09T01:33:35.714Z,5.33
2018-04-09T01:36:01.972Z,5.03
2018-04-09T01:38:28.230Z,4.87
2018-04-09T01:40:54.539Z,5.27
2018-04-09T01:43:20.790Z,5.07
2018-04-09T01:45:47.107Z,4.93
2018-04-09T01:48:13.379Z,5.63
2018-04-09T01:50:40.212Z,4.70
2018-04-09T01:53:06.627Z,5.33
2018-04-09T01:55:32.887Z,5.47
2018-04-09T01:57:59.439Z,5.17
2018-04-09T02:00:25.716Z,5.30
2018-04-09T02:02:52.768Z,4.87
2018-04-09T02:05:19.008Z,5.23
2018-04-09T02:07:45.364Z,5.00
2018-04-09T02:10:11.640Z,5.73
2018-04-09T02:12:37.951Z,4.97
2018-04-09T02:15:04.314Z,5.23
2018-04-09T02:17:30.594Z,5.20
2018-04-09T02:19:57.390Z,5.00
2018-04-09T02:22:23.675Z,4.70
2018-04-09T02:24:49.924Z,5.30
2018-04-09T02:27:16.199Z,4.93
2018-04-09T02:29:42.443Z,4.93
2018-04-09T02:32:08.736Z,4.83
2018-04-09T02:34:34.980Z,5.27
2018-04-09T02:37:01.282Z,5.03
2018-04-09T02:39:27.535Z,5.57
2018-04-09T02:41:54.151Z,4.80
2018-04-09T02:44:20.426Z,4.73
2018-04-09T02:46:46.716Z,4.90
2018-04-09T02:49:12.992Z,5.03
2018-04-09T02:51:39.352Z,4.87
2018-04-09T02:54:05.623Z,4.57
2018-04-09T02:56:31.900Z,4.47
2018-04-09T02:58:58.180Z,4.87
2018-04-09T03:01:24.478Z,4.57
2018-04-09T03:03:50.829Z,4.93
2018-04-09T03:06:17.120Z,5.00
2018-04-09T03:08:43.423Z,4.87
2018-04-09T03:11:09.708Z,4.70
2018-04-09T03:13:39.852Z,4.93
2018-04-09T03:16:06.117Z,5.33
2018-04-09T03:18:32.411Z,4.53
2018-04-09T03:20:58.719Z,4.83
2018-04-09T03:23:25.003Z,5.03
2018-04-09T03:25:51.786Z,4.70
2018-04-09T03:28:18.091Z,4.97
2018-04-09T03:30:44.422Z,4.80
2018-04-09T03:33:10.746Z,4.93
2018-04-09T03:35:37.032Z,4.53
2018-04-09T03:38:03.302Z,4.60
2018-04-09T03:40:29.595Z,4.80
2018-04-09T03:42:55.898Z,4.73
2018-04-09T03:45:23.344Z,5.20
2018-04-09T03:47:49.579Z,4.63
2018-04-09T03:50:15.866Z,4.27
2018-04-09T03:52:42.151Z,4.80
2018-04-09T03:55:08.412Z,4.80
2018-04-09T03:57:34.699Z,4.63
2018-04-09T04:00:01.024Z,5.13
2018-04-09T04:02:27.270Z,4.60
2018-04-09T04:04:53.678Z,4.70
2018-04-09T04:07:19.951Z,4.40
2018-04-09T04:09:46.223Z,4.67
2018-04-09T04:12:13.209Z,4.57
2018-04-09T04:14:39.491Z,4.90
2018-04-09T04:17:18.007Z,4.83
2018-04-09T04:19:56.414Z,4.60
2018-04-09T04:22:22.692Z,4.30
2018-04-09T04:24:48.938Z,4.83
2018-04-09T04:27:15.239Z,4.83
2018-04-09T04:29:41.478Z,4.70
2018-04-09T04:32:07.833Z,4.90
2018-04-09T04:34:34.087Z,4.47
2018-04-09T04:37:00.374Z,4.87
2018-04-09T04:39:27.207Z,22.67
2018-04-09T04:41:54.448Z,9.30
2018-04-09T04:44:20.749Z,5.30
2018-04-09T04:46:47.046Z,4.93
2018-04-09T04:49:13.290Z,5.30
2018-04-09T04:51:39.584Z,4.60
2018-04-09T04:54:05.889Z,4.73
2018-04-09T04:56:32.151Z,5.50
2018-04-09T04:58:58.446Z,6.03
2018-04-09T05:01:24.711Z,5.70
2018-04-09T05:03:50.995Z,5.70
2018-04-09T05:06:17.287Z,5.73
2018-04-09T05:08:47.830Z,5.80
2018-04-09T05:11:14.154Z,6.00
2018-04-09T05:13:40.460Z,6.07
2018-04-09T05:16:06.704Z,6.50
2018-04-09T05:18:33.786Z,6.60
2018-04-09T05:21:00.104Z,7.20
2018-04-09T05:23:26.391Z,7.67
2018-04-09T05:25:52.644Z,8.10
2018-04-09T05:28:18.934Z,7.40
2018-04-09T05:30:45.203Z,7.97
2018-04-09T05:33:11.530Z,6.53
2018-04-09T05:35:37.775Z,6.27
2018-04-09T05:38:04.093Z,6.70
2018-04-09T05:40:30.336Z,41.70
2018-04-09T05:42:56.645Z,11.73
2018-04-09T05:45:22.975Z,9.13
2018-04-09T05:47:50.035Z,7.63
2018-04-09T05:50:16.279Z,7.70
2018-04-09T05:52:43.041Z,9.07
2018-04-09T05:55:10.056Z,20.87
2018-04-09T05:57:36.315Z,15.20
2018-04-09T06:00:03.531Z,6.77
2018-04-09T06:02:29.783Z,6.20
2018-04-09T06:04:56.328Z,6.50
2018-04-09T06:07:23.328Z,5.70
2018-04-09T06:09:49.611Z,5.53
2018-04-09T06:12:16.590Z,6.20
2018-04-09T06:14:42.874Z,6.43
2018-04-09T06:17:09.123Z,6.53
2018-04-09T06:19:35.462Z,8.07
2018-04-09T06:22:02.599Z,7.00
2018-04-09T06:24:29.092Z,7.67
2018-04-09T06:26:55.363Z,8.37
2018-04-09T06:29:21.979Z,11.93
2018-04-09T06:31:48.303Z,12.40
2018-04-09T06:34:14.555Z,160.23
2018-04-09T06:36:40.831Z,73.63
2018-04-09T06:39:07.224Z,16.13
2018-04-09T06:41:33.503Z,13.70
2018-04-09T06:44:00.793Z,15.60
2018-04-09T06:46:27.073Z,16.70
2018-04-09T06:48:53.401Z,26.73
2018-04-09T06:51:20.394Z,33.30
2018-04-09T06:53:46.703Z,19.50
2018-04-09T06:56:12.974Z,20.93
2018-04-09T06:58:39.216Z,19.60
2018-04-09T07:01:06.303Z,20.90
2018-04-09T07:03:32.712Z,20.93
2018-04-09T07:05:59.015Z,21.97
2018-04-09T07:08:25.379Z,22.90
2018-04-09T07:10:51.646Z,24.90
2018-04-09T07:13:18.027Z,26.70
2018-04-09T07:15:44.299Z,25.80
2018-04-09T07:18:11.307Z,26.30
2018-04-09T07:20:37.576Z,24.70
2018-04-09T07:23:04.548Z,25.97
2018-04-09T07:25:30.830Z,28.03
2018-04-09T07:27:57.083Z,30.27
2018-04-09T07:30:23.384Z,27.67
2018-04-09T07:32:49.659Z,29.67
2018-04-09T07:35:15.949Z,30.80
2018-04-09T07:37:42.962Z,33.57
2018-04-09T07:40:09.423Z,32.47
2018-04-09T07:42:35.688Z,32.50
2018-04-09T07:45:02.929Z,32.63
2018-04-09T07:47:29.178Z,34.93
2018-04-09T07:49:56.164Z,36.80
2018-04-09T07:52:22.514Z,34.80
2018-04-09T07:54:48.811Z,38.23
2018-04-09T07:57:15.174Z,38.83
2018-04-09T07:59:41.428Z,38.30
2018-04-09T08:02:08.450Z,38.87
2018-04-09T08:04:34.702Z,43.27
2018-04-09T08:07:00.958Z,42.00
2018-04-09T08:09:27.948Z,45.43
2018-04-09T08:11:54.197Z,45.73
2018-04-09T08:14:20.463Z,47.47
2018-04-09T08:16:46.732Z,46.43
2018-04-09T08:19:12.964Z,47.33
2018-04-09T08:21:39.241Z,47.87
2018-04-09T08:24:05.495Z,47.10
2018-04-09T08:26:31.983Z,47.10
2018-04-09T08:28:58.247Z,47.50
2018-04-09T08:31:24.572Z,46.30
2018-04-09T08:33:50.842Z,45.67
2018-04-09T08:36:17.702Z,46.00
2018-04-09T08:38:44.062Z,44.37
2018-04-09T08:41:10.322Z,44.27
2018-04-09T08:43:36.582Z,45.73
2018-04-09T08:46:02.859Z,43.83
2018-04-09T08:48:29.148Z,44.57
2018-04-09T08:50:55.382Z,45.30
2018-04-09T08:53:21.651Z,44.00
2018-04-09T08:55:47.953Z,43.03
2018-04-09T08:58:14.254Z,42.63
2018-04-09T09:00:41.279Z,44.20
2018-04-09T09:03:07.526Z,44.73
2018-04-09T09:05:33.775Z,43.70
2018-04-09T09:08:00.059Z,42.90
2018-04-09T09:10:26.315Z,42.27
2018-04-09T09:12:52.595Z,40.03
2018-04-09T09:15:18.840Z,39.13
2018-04-09T09:17:45.099Z,37.77
2018-04-09T09:20:11.863Z,37.20
2018-04-09T09:22:38.120Z,39.13
2018-04-09T09:25:04.399Z,39.00
2018-04-09T09:27:30.658Z,38.77
2018-04-09T09:29:56.943Z,38.60
2018-04-09T09:32:23.243Z,39.13
2018-04-09T09:34:49.952Z,40.50
2018-04-09T09:37:16.199Z,40.60
2018-04-09T09:39:43.211Z,41.00
2018-04-09T09:42:09.456Z,42.47
2018-04-09T09:44:35.726Z,41.37
2018-04-09T09:47:01.983Z,43.07
2018-04-09T09:49:28.725Z,43.30
2018-04-09T09:51:54.967Z,42.00
2018-04-09T09:54:21.228Z,43.13
2018-04-09T09:56:47.484Z,42.37
2018-04-09T09:59:13.771Z,45.07
2018-04-09T10:01:41.877Z,42.27
2018-04-09T10:04:08.159Z,42.83
2018-04-09T10:06:34.431Z,41.77
2018-04-09T10:09:00.699Z,40.57
2018-04-09T10:11:26.936Z,42.10
2018-04-09T10:13:53.207Z,41.53
2018-04-09T10:16:19.454Z,43.10
2018-04-09T10:18:45.722Z,41.03
2018-04-09T10:21:12.036Z,40.10
2018-04-09T10:23:39.027Z,39.67
2018-04-09T10:26:05.339Z,39.07
2018-04-09T10:28:31.642Z,40.23
2018-04-09T10:30:57.939Z,39.57
2018-04-09T10:33:24.191Z,44.07
2018-04-09T10:35:51.227Z,40.73
2018-04-09T10:38:17.550Z,40.30
2018-04-09T10:40:43.847Z,40.10
2018-04-09T10:43:10.226Z,39.93
2018-04-09T10:45:36.483Z,40.03
2018-04-09T10:48:03.472Z,39.23
2018-04-09T10:50:29.762Z,39.83
2018-04-09T10:52:56.020Z,39.23
2018-04-09T10:55:22.298Z,37.00
2018-04-09T10:57:48.570Z,37.87
2018-04-09T11:00:14.855Z,37.77
2018-04-09T11:02:41.231Z,37.03
2018-04-09T11:05:07.535Z,38.97
2018-04-09T11:07:34.108Z,39.03
2018-04-09T11:10:00.391Z,40.37
2018-04-09T11:12:26.648Z,41.20
2018-04-09T11:14:52.915Z,38.23
2018-04-09T11:17:19.339Z,36.90
2018-04-09T11:19:45.571Z,37.47
2018-04-09T11:22:11.869Z,37.93
2018-04-09T11:24:38.147Z,37.63
2018-04-09T11:27:04.605Z,36.47
2018-04-09T11:29:30.895Z,35.57
2018-04-09T11:31:57.547Z,35.80
2018-04-09T11:34:23.810Z,35.70
2018-04-09T11:36:50.229Z,35.80
2018-04-09T11:39:16.481Z,37.47
2018-04-09T11:41:43.053Z,36.37
2018-04-09T11:44:09.303Z,36.10
2018-04-09T11:46:36.350Z,36.80
2018-04-09T11:49:02.633Z,36.37
2018-04-09T11:51:28.929Z,37.07
2018-04-09T11:53:55.253Z,37.90
2018-04-09T11:56:21.539Z,37.20
2018-04-09T11:58:47.814Z,37.27
2018-04-09T12:01:14.097Z,42.43
2018-04-09T12:03:40.353Z,37.83
2018-04-09T12:06:06.626Z,37.43
2018-04-09T12:08:33.485Z,37.73
2018-04-09T12:10:59.725Z,36.87
2018-04-09T12:13:25.997Z,35.93
2018-04-09T12:15:52.247Z,36.33
2018-04-09T12:18:18.624Z,33.43
2018-04-09T12:20:44.882Z,34.53
2018-04-09T12:23:12.053Z,33.50
2018-04-09T12:25:38.297Z,33.53
2018-04-09T12:28:05.061Z,32.10
2018-04-09T12:30:31.322Z,30.47
2018-04-09T12:32:57.927Z,31.17
2018-04-09T12:35:24.178Z,30.20
2018-04-09T12:37:50.469Z,31.93
2018-04-09T12:40:16.745Z,29.40
2018-04-09T12:42:43.165Z,28.60
2018-04-09T12:45:09.421Z,28.93
2018-04-09T12:47:36.177Z,29.87
2018-04-09T12:50:02.449Z,29.77
2018-04-09T12:52:28.758Z,27.47
2018-04-09T12:54:54.997Z,28.20
2018-04-09T12:57:21.994Z,27.67
2018-04-09T12:59:48.264Z,28.03
2018-04-09T13:02:15.269Z,27.33
2018-04-09T13:04:41.660Z,26.57
2018-04-09T13:07:08.645Z,27.37
2018-04-09T13:09:34.911Z,27.93
2018-04-09T13:12:01.183Z,28.70
2018-04-09T13:14:28.325Z,28.07
2018-04-09T13:16:54.624Z,28.23
2018-04-09T13:19:21.032Z,24.63
2018-04-09T13:21:47.321Z,26.50
2018-04-09T13:24:13.580Z,25.53
2018-04-09T13:26:39.818Z,26.30
2018-04-09T13:29:06.073Z,24.00
2018-04-09T13:31:33.239Z,22.53
2018-04-09T13:33:59.521Z,21.03
2018-04-09T13:36:25.774Z,22.00
2018-04-09T13:38:52.085Z,21.03
2018-04-09T13:41:18.333Z,20.47
2018-04-09T13:43:44.599Z,19.27
2018-04-09T13:46:10.851Z,21.47
2018-04-09T13:48:37.784Z,21.23
2018-04-09T13:51:04.072Z,21.27
2018-04-09T13:53:36.997Z,21.20
2018-04-09T13:56:03.534Z,20.60
2018-04-09T13:58:29.812Z,20.03
2018-04-09T14:00:56.187Z,19.87
2018-04-09T14:03:22.438Z,20.77
2018-04-09T14:05:49.109Z,19.43
2018-04-09T14:08:15.392Z,19.57
2018-04-09T14:10:41.920Z,20.57
2018-04-09T14:13:08.184Z,19.67
2018-04-09T14:15:34.493Z,19.57
2018-04-09T14:18:01.569Z,21.07
2018-04-09T14:20:27.874Z,21.80
2018-04-09T14:22:54.125Z,21.07
2018-04-09T14:25:20.396Z,24.37
2018-04-09T14:27:46.691Z,25.70
2018-04-09T14:30:12.958Z,27.07
2018-04-09T14:32:39.233Z,26.43
2018-04-09T14:35:05.545Z,27.27
2018-04-09T14:37:31.817Z,30.23
2018-04-09T14:39:58.897Z,28.63
2018-04-09T14:42:25.314Z,30.77
2018-04-09T14:44:51.570Z,31.77
2018-04-09T14:47:17.898Z,32.57
2018-04-09T14:49:44.188Z,34.67
2018-04-09T14:52:10.872Z,35.40
2018-04-09T14:54:37.125Z,36.60
2018-04-09T14:57:03.552Z,38.90
2018-04-09T14:59:29.825Z,38.17
2018-04-09T15:01:56.840Z,38.20
2018-04-09T15:04:23.146Z,40.50
2018-04-09T15:06:49.441Z,39.53
2018-04-09T15:09:15.765Z,38.93
2018-04-09T15:11:42.052Z,38.83
2018-04-09T15:14:08.302Z,39.90
2018-04-09T15:16:34.640Z,40.87
2018-04-09T15:19:00.929Z,40.17
2018-04-09T15:21:27.968Z,39.00
2018-04-09T15:23:54.250Z,40.47
2018-04-09T15:26:20.550Z,42.23
2018-04-09T15:28:46.872Z,39.07
2018-04-09T15:31:13.174Z,41.47
2018-04-09T15:33:39.425Z,40.57
2018-04-09T15:36:05.728Z,41.23
2018-04-09T15:38:32.010Z,44.10
2018-04-09T15:40:58.257Z,42.87
2018-04-09T15:43:24.593Z,45.17
2018-04-09T15:45:50.850Z,45.90
2018-04-09T15:48:17.124Z,45.47
2018-04-09T15:50:43.974Z,43.87
2018-04-09T15:53:10.246Z,43.53
2018-04-09T15:55:36.482Z,43.60
2018-04-09T15:58:02.794Z,50.67
2018-04-09T16:00:29.032Z,47.93
2018-04-09T16:02:55.329Z,44.20
2018-04-09T16:05:22.420Z,44.10
2018-04-09T16:07:48.710Z,44.40
2018-04-09T16:10:14.956Z,44.67
2018-04-09T16:12:41.314Z,45.30
2018-04-09T16:15:07.598Z,43.33
2018-04-09T16:17:45.969Z,41.97
2018-04-09T16:20:12.238Z,42.63
2018-04-09T16:22:38.561Z,42.87
2018-04-09T16:25:04.977Z,42.53
2018-04-09T16:27:32.055Z,44.23
2018-04-09T16:29:58.321Z,43.53
2018-04-09T16:32:24.568Z,43.40
2018-04-09T16:34:50.858Z,47.17
2018-04-09T16:37:17.094Z,49.63
2018-04-09T16:39:43.417Z,46.43
2018-04-09T16:42:10.474Z,45.53
2018-04-09T16:44:36.749Z,45.57
2018-04-09T16:47:03.030Z,44.30
2018-04-09T16:49:29.482Z,44.50
2018-04-09T16:51:55.774Z,45.90
2018-04-09T16:54:22.121Z,46.47
2018-04-09T16:56:49.276Z,44.57
2018-04-09T16:59:15.542Z,44.50
2018-04-09T17:01:42.266Z,45.60
2018-04-09T17:04:08.617Z,43.53
2018-04-09T17:06:35.199Z,44.23
2018-04-09T17:09:01.453Z,42.33
2018-04-09T17:11:27.942Z,44.30
2018-04-09T17:13:54.211Z,45.13
2018-04-09T17:16:20.625Z,43.63
2018-04-09T17:18:46.869Z,44.33
2018-04-09T17:21:13.293Z,43.20
2018-04-09T17:23:39.564Z,40.80
2018-04-09T17:26:06.032Z,43.40
2018-04-09T17:28:32.275Z,50.33
2018-04-09T17:30:58.895Z,57.20
2018-04-09T17:33:25.157Z,57.83
2018-04-09T17:35:51.649Z,46.57
2018-04-09T17:38:17.927Z,47.00
2018-04-09T17:40:44.221Z,40.70
2018-04-09T17:43:12.333Z,42.17
2018-04-09T17:45:38.592Z,41.30
2018-04-09T17:48:05.022Z,65.20
2018-04-09T17:50:31.335Z,232.63
2018-04-09T17:52:57.585Z,126.27
2018-04-09T17:55:23.921Z,72.90
2018-04-09T17:57:50.183Z,55.30
2018-04-09T18:00:17.027Z,48.30
2018-04-09T18:02:43.338Z,49.57
2018-04-09T18:05:10.522Z,49.63
2018-04-09T18:07:36.789Z,47.73
2018-04-09T18:10:03.118Z,46.00
2018-04-09T18:12:29.402Z,46.60
2018-04-09T18:14:56.226Z,47.37
2018-04-09T18:17:23.257Z,46.33
2018-04-09T18:19:50.293Z,47.50
2018-04-09T18:22:16.718Z,47.17
2018-04-09T18:24:42.985Z,48.10
2018-04-09T18:27:09.351Z,45.90
2018-04-09T18:29:35.652Z,49.73
2018-04-09T18:32:02.717Z,51.57
2018-04-09T18:34:29.721Z,54.33
2018-04-09T18:36:56.073Z,52.87
2018-04-09T18:39:22.385Z,54.33
2018-04-09T18:41:48.636Z,53.77
2018-04-09T18:44:14.905Z,52.57
2018-04-09T18:46:41.190Z,55.63
2018-04-09T18:49:07.529Z,185.03
2018-04-09T18:51:33.833Z,234.33
2018-04-09T18:54:00.278Z,82.60
2018-04-09T18:56:26.568Z,62.53
2018-04-09T18:58:52.873Z,59.93
2018-04-09T19:01:19.213Z,60.03
2018-04-09T19:03:47.082Z,59.23
2018-04-09T19:06:13.560Z,60.07
2018-04-09T19:08:39.960Z,58.97
2018-04-09T19:11:07.050Z,58.67
2018-04-09T19:13:33.530Z,57.80
2018-04-09T19:16:00.664Z,59.27
2018-04-09T19:18:26.972Z,61.37
2018-04-09T19:20:54.045Z,59.03
2018-04-09T19:23:20.909Z,57.43
2018-04-09T19:25:47.925Z,56.57
2018-04-09T19:28:14.197Z,180.13
2018-04-09T19:30:41.650Z,96.17
2018-04-09T19:33:08.784Z,71.50
2018-04-09T19:35:41.209Z,58.93
2018-04-09T19:38:13.445Z,57.63
2018-04-09T19:40:40.644Z,56.77
2018-04-09T19:43:07.593Z,58.40
2018-04-09T19:45:33.900Z,59.00
2018-04-09T19:48:00.291Z,57.47
2018-04-09T19:50:26.828Z,58.53
2018-04-09T19:52:53.081Z,57.27
2018-04-09T19:55:19.570Z,58.80
2018-04-09T19:57:45.842Z,60.93
2018-04-09T20:00:12.625Z,57.40
2018-04-09T20:02:38.897Z,55.53
2018-04-09T20:05:05.234Z,55.23
2018-04-09T20:07:32.310Z,52.10
2018-04-09T20:09:58.654Z,50.87
2018-04-09T20:12:24.908Z,47.97
2018-04-09T20:14:51.193Z,45.17
2018-04-09T20:17:17.473Z,45.47
2018-04-09T20:19:43.785Z,43.67
2018-04-09T20:22:10.033Z,41.70
2018-04-09T20:24:36.416Z,39.23
2018-04-09T20:27:02.705Z,37.23
2018-04-09T20:29:28.976Z,34.57
2018-04-09T20:31:55.977Z,34.53
2018-04-09T20:34:22.216Z,34.37
2018-04-09T20:36:48.494Z,32.40
2018-04-09T20:39:14.781Z,32.80
2018-04-09T20:41:41.240Z,33.10
2018-04-09T20:44:07.488Z,32.53
2018-04-09T20:46:33.787Z,25.87
2018-04-09T20:49:00.054Z,25.77
2018-04-09T20:51:26.932Z,21.77
2018-04-09T20:53:53.187Z,22.13
2018-04-09T20:56:19.443Z,21.63
2018-04-09T20:58:46.186Z,20.67
2018-04-09T21:01:12.465Z,20.03
2018-04-09T21:03:38.716Z,19.37
2018-04-09T21:06:04.996Z,19.67
2018-04-09T21:08:32.213Z,19.80
2018-04-09T21:10:58.489Z,20.20
2018-04-09T21:13:24.741Z,20.43
2018-04-09T21:15:51.034Z,20.47
2018-04-09T21:18:17.345Z,19.93
2018-04-09T21:20:43.593Z,19.37
2018-04-09T21:23:15.952Z,18.93
2018-04-09T21:25:43.069Z,19.53
2018-04-09T21:28:09.456Z,19.90
2018-04-09T21:30:35.714Z,19.13
2018-04-09T21:33:01.975Z,19.53
2018-04-09T21:35:28.220Z,19.53
2018-04-09T21:37:54.494Z,20.13
2018-04-09T21:40:20.734Z,19.83
2018-04-09T21:42:47.009Z,20.60
2018-04-09T21:45:13.273Z,20.37
2018-04-09T21:47:39.539Z,20.77
2018-04-09T21:50:05.820Z,22.00
2018-04-09T21:52:32.093Z,23.83
2018-04-09T21:54:58.353Z,24.87
2018-04-09T21:57:24.617Z,25.57
2018-04-09T21:59:50.868Z,26.30
2018-04-09T22:02:17.127Z,26.93
2018-04-09T22:04:43.389Z,28.70
2018-04-09T22:07:09.685Z,29.80
2018-04-09T22:09:35.929Z,30.27
2018-04-09T22:12:02.245Z,30.17
2018-04-09T22:14:28.492Z,30.13
2018-04-09T22:16:55.880Z,30.83
2018-04-09T22:19:22.133Z,29.77
2018-04-09T22:21:49.105Z,31.33
2018-04-09T22:24:15.393Z,31.23
2018-04-09T22:26:42.404Z,29.57
2018-04-09T22:29:08.741Z,31.27
2018-04-09T22:31:34.989Z,32.10
2018-04-09T22:34:01.296Z,31.27
2018-04-09T22:36:28.238Z,32.57
2018-04-09T22:38:54.489Z,32.67
2018-04-09T22:41:20.750Z,32.30
2018-04-09T22:43:47.020Z,33.67
2018-04-09T22:46:13.269Z,32.03
2018-04-09T22:48:40.286Z,33.40
2018-04-09T22:51:06.577Z,32.03
2018-04-09T22:53:32.864Z,32.17
2018-04-09T22:55:59.114Z,30.83
2018-04-09T22:58:25.376Z,32.10
2018-04-09T23:00:51.622Z,31.57
2018-04-09T23:03:17.965Z,31.97
2018-04-09T23:05:44.485Z,31.10
2018-04-09T23:08:11.142Z,31.47
2018-04-09T23:10:37.417Z,31.80
2018-04-09T23:13:03.685Z,32.57
2018-04-09T23:15:30.013Z,32.70
2018-04-09T23:17:56.299Z,31.23
2018-04-09T23:20:22.553Z,31.40
2018-04-09T23:22:48.857Z,31.73
2018-04-09T23:25:15.137Z,32.30
2018-04-09T23:27:41.397Z,31.00
2018-04-09T23:30:07.689Z,30.03
2018-04-09T23:32:33.985Z,30.83
2018-04-09T23:35:00.257Z,30.07
2018-04-09T23:37:27.389Z,31.00
2018-04-09T23:39:53.700Z,30.77
2018-04-09T23:42:19.961Z,31.40
2018-04-09T23:44:46.390Z,30.93
2018-04-09T23:47:12.636Z,30.13
2018-04-09T23:49:38.925Z,31.07
2018-04-09T23:52:05.195Z,31.53
2018-04-09T23:54:31.429Z,31.50
2018-04-09T23:56:57.697Z,30.30
2018-04-09T23:59:23.960Z,29.77
